createdAt,value
2022-12-17T00:04:27.478Z,100952.69
2022-12-17T00:09:50.220Z,100949.06
2022-12-17T00:15:10.600Z,100959.34
2022-12-17T00:20:30.599Z,100971.31
2022-12-17T00:25:50.523Z,100970.22
2022-12-17T00:31:11.053Z,100971.66
2022-12-17T00:36:30.920Z,100974.06
2022-12-17T00:41:50.765Z,100984.72
2022-12-17T00:47:10.724Z,100990.41
2022-12-17T00:52:30.947Z,100992.50
2022-12-17T00:57:50.814Z,100989.69
2022-12-17T01:03:10.791Z,100992.75
2022-12-17T01:08:33.771Z,101003.56
2022-12-17T01:13:53.649Z,101004.78
2022-12-17T01:19:17.608Z,101010.50
2022-12-17T01:24:37.516Z,101007.72
2022-12-17T01:29:57.354Z,101012.19
2022-12-17T01:35:30.807Z,101026.81
2022-12-17T01:40:50.748Z,101031.56
2022-12-17T01:46:10.724Z,101043.47
2022-12-17T01:51:32.429Z,101040.28
2022-12-17T01:56:54.599Z,101045.44
2022-12-17T02:02:14.632Z,101059.34
2022-12-17T02:08:05.188Z,101056.44
2022-12-17T02:13:54.412Z,101053.81
2022-12-17T02:19:21.504Z,101058.75
2022-12-17T02:24:50.055Z,101064.34
2022-12-17T02:30:14.051Z,101059.41
2022-12-17T02:35:36.765Z,101070.13
2022-12-17T02:40:58.169Z,101070.69
2022-12-17T02:46:18.166Z,101080.44
2022-12-17T02:51:39.281Z,101090.25
2022-12-17T02:56:59.093Z,101090.06
2022-12-17T03:02:19.060Z,101084.94
2022-12-17T03:07:39.152Z,101087.25
2022-12-17T03:12:59.032Z,101089.53
2022-12-17T03:18:18.806Z,101096.69
2022-12-17T03:23:39.031Z,101114.50
2022-12-17T03:28:59.089Z,101118.50
2022-12-17T03:34:19.365Z,101110.00
2022-12-17T03:39:39.236Z,101121.28
2022-12-17T03:44:59.152Z,101129.84
2022-12-17T03:50:19.231Z,101130.41
2022-12-17T03:55:39.142Z,101133.97
2022-12-17T04:00:59.040Z,101139.47
2022-12-17T04:06:18.921Z,101142.63
2022-12-17T04:11:38.698Z,101143.94
2022-12-17T04:16:58.604Z,101151.94
2022-12-17T04:22:18.361Z,101163.31
2022-12-17T04:27:38.318Z,101168.66
2022-12-17T04:32:58.222Z,101165.97
2022-12-17T04:38:18.088Z,101163.06
2022-12-17T04:43:38.695Z,101167.13
2022-12-17T04:48:59.414Z,101168.63
2022-12-17T04:54:19.794Z,101169.13
2022-12-17T04:59:39.689Z,101164.25
2022-12-17T05:04:59.577Z,101180.13
2022-12-17T05:10:19.456Z,101180.97
2022-12-17T05:15:39.925Z,101194.94
2022-12-17T05:21:00.218Z,101198.09
2022-12-17T05:26:37.153Z,101208.75
2022-12-17T05:31:57.044Z,101214.94
2022-12-17T05:37:16.944Z,101209.94
2022-12-17T05:42:36.779Z,101213.94
2022-12-17T05:47:56.752Z,101217.25
2022-12-17T05:53:21.238Z,101216.09
2022-12-17T05:58:41.056Z,101214.38
2022-12-17T06:04:01.503Z,101237.00
2022-12-17T06:09:21.993Z,101238.50
2022-12-17T06:14:42.047Z,101244.53
2022-12-17T06:20:01.858Z,101240.22
2022-12-17T06:25:22.444Z,101242.56
2022-12-17T06:30:42.534Z,101244.03
2022-12-17T06:36:02.461Z,101259.31
2022-12-17T06:41:22.313Z,101253.66
2022-12-17T06:46:42.319Z,101264.38
2022-12-17T06:52:02.478Z,101273.19
2022-12-17T06:57:22.542Z,101283.53
2022-12-17T07:02:42.486Z,101288.03
2022-12-17T07:08:22.493Z,101290.59
2022-12-17T07:13:42.331Z,101305.38
2022-12-17T07:19:02.151Z,101308.09
2022-12-17T07:24:22.439Z,101314.00
2022-12-17T07:29:42.489Z,101335.59
2022-12-17T07:35:02.344Z,101343.09
2022-12-17T07:40:23.351Z,101353.41
2022-12-17T07:45:43.618Z,101364.44
2022-12-17T07:51:07.647Z,101369.03
2022-12-17T07:56:27.626Z,101368.97
2022-12-17T08:01:47.651Z,101389.25
2022-12-17T08:07:13.888Z,101390.56
2022-12-17T08:12:34.540Z,101391.63
2022-12-17T08:17:54.301Z,101401.88
2022-12-17T08:23:22.090Z,101401.25
2022-12-17T08:28:50.457Z,101406.50
2022-12-17T08:34:10.942Z,101418.53
2022-12-17T08:39:30.779Z,101422.34
2022-12-17T08:44:50.724Z,101431.50
2022-12-17T08:50:10.743Z,101426.25
2022-12-17T08:55:30.586Z,101419.84
2022-12-17T09:00:50.544Z,101420.97
2022-12-17T09:06:10.846Z,101425.75
2022-12-17T09:11:31.010Z,101414.13
2022-12-17T09:16:50.977Z,101415.22
2022-12-17T09:22:11.189Z,101410.97
2022-12-17T09:27:31.068Z,101414.91
2022-12-17T09:32:50.975Z,101411.22
2022-12-17T09:38:15.399Z,101432.59
2022-12-17T09:43:49.066Z,101440.94
2022-12-17T09:49:18.546Z,101445.06
2022-12-17T09:54:47.128Z,101448.63
2022-12-17T10:00:07.556Z,101444.91
2022-12-17T10:05:34.043Z,101440.34
2022-12-17T10:10:59.411Z,101444.81
2022-12-17T10:16:20.434Z,101441.97
2022-12-17T10:21:40.229Z,101433.41
2022-12-17T10:27:07.239Z,101433.84
2022-12-17T10:32:35.475Z,101439.06
2022-12-17T10:37:55.695Z,101434.22
2022-12-17T10:43:15.379Z,101440.34
2022-12-17T10:48:42.346Z,101442.84
2022-12-17T10:54:08.907Z,101445.66
2022-12-17T10:59:41.395Z,101457.88
2022-12-17T11:05:11.251Z,101449.38
2022-12-17T11:10:42.710Z,101440.00
2022-12-17T11:16:07.584Z,101441.72
2022-12-17T11:21:39.216Z,101441.13
2022-12-17T11:27:01.783Z,101437.56
2022-12-17T11:32:49.487Z,101454.69
2022-12-17T11:38:29.458Z,101454.94
2022-12-17T11:44:10.711Z,101456.84
2022-12-17T11:49:52.733Z,101451.28
2022-12-17T11:55:35.637Z,101444.53
2022-12-17T12:01:09.699Z,101445.53
2022-12-17T12:06:41.708Z,101453.41
2022-12-17T12:12:15.733Z,101457.44
2022-12-17T12:17:50.680Z,101459.59
2022-12-17T12:23:37.160Z,101455.03
2022-12-17T12:29:16.387Z,101452.13
2022-12-17T12:34:40.407Z,101455.59
2022-12-17T12:40:12.778Z,101464.88
2022-12-17T12:46:17.046Z,101475.66
2022-12-17T12:51:52.854Z,101471.13
2022-12-17T12:57:12.741Z,101474.03
2022-12-17T13:02:37.872Z,101458.34
2022-12-17T13:07:39.416Z,101454.72
2022-12-17T13:12:47.301Z,101453.34
2022-12-17T13:17:57.550Z,101443.06
2022-12-17T13:23:11.163Z,101433.63
2022-12-17T13:28:28.293Z,101433.91
2022-12-17T13:34:07.016Z,101440.56
2022-12-17T13:39:30.401Z,101438.09
2022-12-17T13:44:45.482Z,101459.81
2022-12-17T13:50:24.459Z,101466.88
2022-12-17T13:55:29.053Z,101472.41
2022-12-17T14:00:32.479Z,101474.47
2022-12-17T14:05:37.882Z,101471.53
2022-12-17T14:10:47.643Z,101464.38
2022-12-17T14:15:52.803Z,101459.63
2022-12-17T14:20:55.647Z,101469.66
2022-12-17T14:25:57.877Z,101465.22
2022-12-17T14:36:31.495Z,101473.50
2022-12-17T14:41:56.474Z,101468.38
2022-12-17T14:47:19.553Z,101475.38
2022-12-17T14:52:30.212Z,101481.72
2022-12-17T14:57:31.624Z,101487.13
2022-12-17T15:02:37.775Z,101485.00
2022-12-17T15:07:39.674Z,101492.81
2022-12-17T15:12:43.090Z,101491.50
2022-12-17T15:17:44.633Z,101490.34
2022-12-17T15:22:47.158Z,101491.53
2022-12-17T15:27:48.674Z,101492.88
2022-12-17T15:32:50.146Z,101497.00
2022-12-17T15:37:51.665Z,101506.13
2022-12-17T15:43:12.833Z,101510.50
2022-12-17T15:48:19.540Z,101514.84
2022-12-17T15:53:20.918Z,101518.47
2022-12-17T15:58:22.326Z,101515.47
2022-12-17T16:03:23.768Z,101520.03
2022-12-17T16:08:25.351Z,101513.00
2022-12-17T16:13:26.767Z,101503.75
2022-12-17T16:18:28.315Z,101502.13
2022-12-17T16:23:30.108Z,101508.72
2022-12-17T16:28:31.626Z,101512.16
2022-12-17T16:33:37.804Z,101514.72
2022-12-17T16:38:47.304Z,101518.59
2022-12-17T16:43:49.304Z,101519.09
2022-12-17T16:48:50.880Z,101523.75
2022-12-17T16:53:52.777Z,101523.63
2022-12-17T16:58:55.396Z,101540.94
2022-12-17T17:03:57.536Z,101536.31
2022-12-17T17:08:59.045Z,101535.72
2022-12-17T17:14:00.905Z,101550.16
2022-12-17T17:19:03.423Z,101542.63
2022-12-17T17:24:18.456Z,101540.69
2022-12-17T17:29:22.494Z,101545.50
2022-12-17T17:34:23.960Z,101547.66
2022-12-17T17:39:25.900Z,101547.59
2022-12-17T17:44:27.313Z,101547.59
2022-12-17T17:49:29.018Z,101555.69
2022-12-17T17:54:31.246Z,101555.69
2022-12-17T17:59:33.956Z,101556.44
2022-12-17T18:04:35.967Z,101558.59
2022-12-17T18:09:37.446Z,101559.75
2022-12-17T18:14:46.662Z,101565.88
2022-12-17T18:19:59.363Z,101578.75
2022-12-17T18:25:00.851Z,101585.72
2022-12-17T18:30:02.306Z,101594.63
2022-12-17T18:35:04.195Z,101596.78
2022-12-17T18:40:06.541Z,101590.63
2022-12-17T18:45:08.367Z,101606.91
2022-12-17T18:50:11.019Z,101611.59
2022-12-17T18:55:12.601Z,101603.22
2022-12-17T19:00:14.903Z,101607.09
2022-12-17T19:05:16.581Z,101607.44
2022-12-17T19:10:18.131Z,101618.53
2022-12-17T19:15:19.601Z,101615.81
2022-12-17T19:20:21.056Z,101632.09
2022-12-17T19:25:23.054Z,101630.22
2022-12-17T19:30:24.572Z,101635.19
2022-12-17T19:35:26.280Z,101632.69
2022-12-17T19:40:28.001Z,101626.03
2022-12-17T19:45:31.856Z,101625.66
2022-12-17T19:50:33.419Z,101620.47
2022-12-17T19:55:35.227Z,101614.56
2022-12-17T20:00:37.000Z,101620.09
2022-12-17T20:05:38.829Z,101620.88
2022-12-17T20:10:40.440Z,101628.06
2022-12-17T20:15:41.889Z,101614.63
2022-12-17T20:20:44.417Z,101604.72
2022-12-17T20:25:45.921Z,101609.50
2022-12-17T20:30:47.452Z,101624.44
2022-12-17T20:35:48.985Z,101621.53
2022-12-17T20:40:50.410Z,101624.31
2022-12-17T20:45:55.174Z,101613.41
2022-12-17T20:50:56.697Z,101628.91
2022-12-17T20:56:19.815Z,101627.72
2022-12-17T21:01:23.378Z,101622.28
2022-12-17T21:06:32.484Z,101614.22
2022-12-17T21:11:35.151Z,101623.69
2022-12-17T21:16:38.697Z,101630.91
2022-12-17T21:21:40.302Z,101643.03
2022-12-17T21:26:43.469Z,101652.44
2022-12-17T21:31:50.306Z,101651.03
2022-12-17T21:36:52.339Z,101661.25
2022-12-17T21:42:12.581Z,101662.06
2022-12-17T21:47:14.014Z,101666.91
2022-12-17T21:52:15.444Z,101661.22
2022-12-17T21:57:16.904Z,101667.66
2022-12-17T22:02:18.402Z,101666.78
2022-12-17T22:07:22.034Z,101670.69
2022-12-17T22:12:45.702Z,101665.75
2022-12-17T22:17:47.242Z,101667.44
2022-12-17T22:22:48.921Z,101668.81
2022-12-17T22:27:50.486Z,101660.25
2022-12-17T22:33:02.213Z,101663.19
2022-12-17T22:41:36.910Z,101661.03
2022-12-17T22:44:37.449Z,101660.16
2022-12-17T22:48:52.642Z,101654.44
2022-12-17T22:53:54.674Z,101662.28
2022-12-17T22:58:57.325Z,101673.56
2022-12-17T23:04:00.232Z,101676.03
2022-12-17T23:09:01.708Z,101680.91
2022-12-17T23:14:03.633Z,101684.06
2022-12-17T23:19:06.233Z,101692.22
2022-12-17T23:24:08.322Z,101665.78
2022-12-17T23:29:19.339Z,101654.38
2022-12-17T23:34:21.116Z,101663.31
2022-12-17T23:39:22.660Z,101671.53
2022-12-17T23:44:24.314Z,101663.81
2022-12-17T23:49:26.028Z,101669.81
2022-12-17T23:54:27.718Z,101675.94
2022-12-17T23:59:29.211Z,101666.00
